CheckWX is a tool to help pilots better visualize weather data.  It is not intended as a substitute for an official pre-flight weather briefing.

15:28:50 UTC

KBVI METAR
Beaver County Airport
Beaver Falls, Pennsylvania, USA
Current

14 mins ago

KBVI 291515Z AUTO 22018G31KT 10SM BKN032 OVC038 23/15 A2965 RMK AO2 T02260150
Observed
Mar-29 @ 15:15 UTC
Wind
  • 220° at 18 KTS
  • Gusting to 31 KTS
Visibility
10 SM
Flight Rules
VFR
Cloud Levels
  • Broken at 3,200' AGL
  • Overcast at 3,800' AGL
Temperature
23°C / 73°F
Dewpoint
15°C / 59°F
Humidity
61%
Altimeter
29.65" Hg
Pressure
1004.02 hPa
Previous

33 mins ago

KBVI 291456Z AUTO 20012G23KT 10SM OVC030 21/15 A2967 RMK AO2 T02110148
Observed
Mar-29 @ 14:56 UTC
Wind
  • 200° at 12 KTS
  • Gusting to 23 KTS
Visibility
10 SM
Flight Rules
MVFR
Cloud Levels
  • Overcast at 3,000' AGL
Temperature
21°C / 70°F
Dewpoint
15°C / 59°F
Humidity
69%
Altimeter
29.67" Hg
Pressure
1004.72 hPa
Previous

54 mins ago

KBVI 291435Z AUTO 21012G23KT 10SM BKN030 BKN035 OVC044 21/15 A2967 RMK AO2 T02060149
Observed
Mar-29 @ 14:35 UTC
Wind
  • 210° at 12 KTS
  • Gusting to 23 KTS
Visibility
10 SM
Flight Rules
MVFR
Cloud Levels
  • Broken at 3,000' AGL
  • Broken at 3,500' AGL
  • Overcast at 4,400' AGL
Temperature
21°C / 70°F
Dewpoint
15°C / 59°F
Humidity
69%
Altimeter
29.67" Hg
Pressure
1004.72 hPa